createdAt,value
2018-06-05T00:00:12.143Z,65.74
2018-06-05T00:02:40.204Z,66.04
2018-06-05T00:05:08.264Z,65.72
2018-06-05T00:07:36.324Z,66.39
2018-06-05T00:10:04.501Z,65.95
2018-06-05T00:12:32.543Z,65.74
2018-06-05T00:15:00.604Z,66.18
2018-06-05T00:17:28.688Z,65.85
2018-06-05T00:19:56.748Z,65.56
2018-06-05T00:22:24.803Z,65.72
2018-06-05T00:24:52.876Z,65.66
2018-06-05T00:27:20.925Z,65.44
2018-06-05T00:29:48.981Z,65.78
2018-06-05T00:32:17.068Z,65.84
2018-06-05T00:34:45.119Z,65.69
2018-06-05T00:37:13.177Z,65.91
2018-06-05T00:39:41.239Z,65.50
2018-06-05T00:42:09.290Z,65.52
2018-06-05T00:44:37.340Z,66.09
2018-06-05T00:47:05.432Z,65.86
2018-06-05T00:49:33.488Z,66.06
2018-06-05T00:52:09.193Z,66.17
2018-06-05T00:54:37.236Z,66.28
2018-06-05T00:57:05.373Z,65.90
2018-06-05T00:59:33.460Z,66.40
2018-06-05T01:02:01.521Z,66.35
2018-06-05T01:04:29.567Z,66.47
2018-06-05T01:06:57.620Z,66.70
2018-06-05T01:09:25.660Z,66.61
2018-06-05T01:11:53.718Z,66.67
2018-06-05T01:14:21.750Z,66.43
2018-06-05T01:16:49.820Z,66.90
2018-06-05T01:19:17.908Z,66.84
2018-06-05T01:21:45.970Z,66.76
2018-06-05T01:24:14.004Z,66.91
2018-06-05T01:26:42.056Z,67.06
2018-06-05T01:29:10.089Z,67.08
2018-06-05T01:31:38.140Z,66.94
2018-06-05T01:34:06.196Z,66.99
2018-06-05T01:36:34.264Z,66.94
2018-06-05T01:39:02.352Z,67.07
2018-06-05T01:41:30.395Z,66.85
2018-06-05T01:43:58.447Z,67.23
2018-06-05T01:46:26.502Z,66.93
2018-06-05T01:48:54.564Z,67.70
2018-06-05T01:51:22.616Z,66.94
2018-06-05T01:53:50.689Z,67.16
2018-06-05T01:56:18.736Z,67.28
2018-06-05T01:58:46.792Z,67.63
2018-06-05T02:01:14.840Z,67.43
2018-06-05T02:03:42.891Z,67.48
2018-06-05T02:06:10.939Z,68.08
2018-06-05T02:08:38.968Z,67.61
2018-06-05T02:11:07.033Z,67.28
2018-06-05T02:13:35.068Z,66.89
2018-06-05T02:16:03.125Z,67.14
2018-06-05T02:18:31.163Z,67.10
2018-06-05T02:20:59.216Z,66.99
2018-06-05T02:23:27.273Z,66.90
2018-06-05T02:25:55.328Z,67.07
2018-06-05T02:28:23.375Z,67.08
2018-06-05T02:30:51.434Z,67.04
2018-06-05T02:33:19.477Z,67.21
2018-06-05T02:35:47.528Z,66.86
2018-06-05T02:38:15.560Z,66.96
2018-06-05T02:40:43.730Z,66.81
2018-06-05T02:43:11.784Z,66.85
2018-06-05T02:45:39.840Z,67.01
2018-06-05T02:48:07.912Z,66.73
2018-06-05T02:50:35.964Z,67.01
2018-06-05T02:53:04.028Z,67.00
2018-06-05T02:55:32.092Z,67.11
2018-06-05T02:58:00.132Z,67.08
2018-06-05T03:00:28.173Z,67.12
2018-06-05T03:02:56.216Z,67.15
2018-06-05T03:05:24.272Z,66.97
2018-06-05T03:07:52.307Z,66.80
2018-06-05T03:10:20.365Z,67.08
2018-06-05T03:12:48.416Z,67.30
2018-06-05T03:15:16.461Z,67.14
2018-06-05T03:17:44.519Z,67.33
2018-06-05T03:20:12.580Z,67.05
2018-06-05T03:22:40.661Z,66.54
2018-06-05T03:25:08.711Z,67.01
2018-06-05T03:27:36.763Z,66.72
2018-06-05T03:30:05.245Z,66.74
2018-06-05T03:32:33.300Z,66.81
2018-06-05T03:35:01.358Z,66.11
2018-06-05T03:37:29.398Z,66.42
2018-06-05T03:39:57.448Z,66.30
2018-06-05T03:42:25.498Z,66.23
2018-06-05T03:44:53.557Z,66.25
2018-06-05T03:47:21.620Z,65.81
2018-06-05T03:49:49.656Z,66.33
2018-06-05T03:52:17.716Z,66.07
2018-06-05T03:54:45.758Z,65.49
2018-06-05T03:57:13.816Z,65.71
2018-06-05T03:59:41.865Z,65.82
2018-06-05T04:02:09.921Z,65.67
2018-06-05T04:04:37.955Z,65.54
2018-06-05T04:07:06.016Z,65.47
2018-06-05T04:09:34.087Z,65.34
2018-06-05T04:12:02.144Z,65.45
2018-06-05T04:14:30.196Z,65.10
2018-06-05T04:16:58.280Z,65.40
2018-06-05T04:19:26.340Z,65.10
2018-06-05T04:21:54.409Z,65.40
2018-06-05T04:24:22.455Z,65.20
2018-06-05T04:26:50.518Z,64.94
2018-06-05T04:29:18.563Z,64.72
2018-06-05T04:31:46.622Z,64.55
2018-06-05T04:34:14.672Z,64.41
2018-06-05T04:36:42.725Z,64.74
2018-06-05T04:39:10.765Z,64.59
2018-06-05T04:41:38.825Z,64.03
2018-06-05T04:44:06.875Z,63.68
2018-06-05T04:46:34.947Z,64.05
2018-06-05T04:49:02.979Z,64.02
2018-06-05T04:51:31.023Z,63.80
2018-06-05T04:53:59.055Z,63.44
2018-06-05T04:56:27.111Z,63.48
2018-06-05T04:58:55.132Z,63.72
2018-06-05T05:01:23.184Z,63.80
2018-06-05T05:03:51.231Z,63.72
2018-06-05T05:06:19.303Z,64.00
2018-06-05T05:08:47.379Z,63.97
2018-06-05T05:11:15.464Z,63.68
2018-06-05T05:13:43.539Z,63.56
2018-06-05T05:16:11.579Z,63.32
2018-06-05T05:18:39.651Z,63.34
2018-06-05T05:21:07.705Z,63.54
2018-06-05T05:23:35.741Z,62.66
2018-06-05T05:26:03.808Z,62.62
2018-06-05T05:28:31.843Z,62.55
2018-06-05T05:30:59.892Z,62.66
2018-06-05T05:33:27.972Z,62.53
2018-06-05T05:35:56.015Z,62.16
2018-06-05T05:38:24.073Z,61.79
2018-06-05T05:40:52.157Z,62.01
2018-06-05T05:43:20.203Z,62.07
2018-06-05T05:45:48.256Z,61.57
2018-06-05T05:48:16.336Z,61.83
2018-06-05T05:50:44.400Z,61.46
2018-06-05T05:53:12.464Z,61.25
2018-06-05T05:55:40.506Z,61.31
2018-06-05T05:58:08.552Z,60.82
2018-06-05T06:00:36.596Z,61.10
2018-06-05T06:03:04.676Z,61.21
2018-06-05T06:05:32.740Z,61.24
2018-06-05T06:08:00.780Z,61.29
2018-06-05T06:10:28.844Z,60.95
2018-06-05T06:12:56.904Z,61.03
2018-06-05T06:15:24.959Z,60.86
2018-06-05T06:17:53.028Z,60.58
2018-06-05T06:20:21.123Z,60.84
2018-06-05T06:22:49.185Z,60.86
2018-06-05T06:25:17.229Z,60.43
2018-06-05T06:27:45.302Z,60.36
2018-06-05T06:30:13.353Z,60.25
2018-06-05T06:32:41.412Z,59.02
2018-06-05T06:35:09.449Z,59.10
2018-06-05T06:37:37.496Z,58.99
2018-06-05T06:40:05.601Z,58.84
2018-06-05T06:42:33.683Z,58.74
2018-06-05T06:45:01.733Z,58.30
2018-06-05T06:47:29.788Z,57.78
2018-06-05T06:49:57.863Z,56.87
2018-06-05T06:52:25.936Z,57.58
2018-06-05T06:54:53.983Z,57.03
2018-06-05T06:57:22.039Z,57.29
2018-06-05T06:59:50.079Z,57.17
2018-06-05T07:02:19.111Z,57.06
2018-06-05T07:04:47.165Z,56.09
2018-06-05T07:07:15.232Z,55.03
2018-06-05T07:09:43.292Z,55.02
2018-06-05T07:12:11.390Z,55.18
2018-06-05T07:14:39.402Z,54.09
2018-06-05T07:17:07.865Z,54.48
2018-06-05T07:19:35.904Z,53.74
2018-06-05T07:22:03.992Z,53.59
2018-06-05T07:24:32.062Z,52.67
2018-06-05T07:27:00.136Z,51.33
2018-06-05T07:29:28.203Z,52.25
2018-06-05T07:31:56.299Z,52.21
2018-06-05T07:34:24.360Z,51.70
2018-06-05T07:36:52.425Z,51.26
2018-06-05T07:39:20.482Z,50.41
2018-06-05T07:41:48.572Z,50.58
2018-06-05T07:44:16.655Z,49.62
2018-06-05T07:46:44.709Z,49.60
2018-06-05T07:49:12.776Z,48.59
2018-06-05T07:51:40.840Z,48.65
2018-06-05T07:54:08.909Z,48.50
2018-06-05T07:56:36.981Z,48.72
2018-06-05T07:59:05.052Z,47.08
2018-06-05T08:01:33.116Z,47.25
2018-06-05T08:04:01.191Z,45.68
2018-06-05T08:06:29.254Z,46.78
2018-06-05T08:08:57.326Z,46.69
2018-06-05T08:11:25.371Z,46.25
2018-06-05T08:13:53.435Z,45.79
2018-06-05T08:16:21.508Z,45.60
2018-06-05T08:18:49.609Z,45.34
2018-06-05T08:21:17.676Z,45.09
2018-06-05T08:23:45.743Z,44.77
2018-06-05T08:26:13.788Z,44.26
2018-06-05T08:28:41.876Z,44.09
2018-06-05T08:31:10.000Z,43.71
2018-06-05T08:33:38.065Z,43.08
2018-06-05T08:36:06.127Z,42.66
2018-06-05T08:38:35.129Z,42.57
2018-06-05T08:41:03.188Z,42.08
2018-06-05T08:43:31.268Z,41.51
2018-06-05T08:45:59.316Z,40.61
2018-06-05T08:48:27.387Z,40.65
2018-06-05T08:50:55.426Z,39.44
2018-06-05T08:53:23.488Z,39.98
2018-06-05T08:55:51.596Z,39.61
2018-06-05T08:58:19.659Z,40.20
2018-06-05T09:00:47.729Z,39.61
2018-06-05T09:03:15.812Z,38.19
2018-06-05T09:05:43.868Z,39.04
2018-06-05T09:08:11.972Z,37.85
2018-06-05T09:10:40.020Z,38.38
2018-06-05T09:13:08.084Z,37.12
2018-06-05T09:15:36.132Z,37.07
2018-06-05T09:18:04.217Z,37.00
2018-06-05T09:20:32.273Z,36.33
2018-06-05T09:23:00.391Z,35.84
2018-06-05T09:25:28.456Z,35.26
2018-06-05T09:27:56.568Z,35.34
2018-06-05T09:30:24.633Z,35.58
2018-06-05T09:32:52.681Z,35.30
2018-06-05T09:35:20.763Z,34.58
2018-06-05T09:37:48.817Z,34.71
2018-06-05T09:40:16.881Z,35.12
2018-06-05T09:42:44.953Z,34.91
2018-06-05T09:45:13.092Z,34.58
2018-06-05T09:47:41.174Z,33.38
2018-06-05T09:50:09.251Z,33.82
2018-06-05T09:52:37.296Z,33.51
2018-06-05T09:55:05.359Z,33.38
2018-06-05T09:57:33.479Z,32.65
2018-06-05T10:00:01.512Z,32.90
2018-06-05T10:02:29.576Z,32.54
2018-06-05T10:04:57.638Z,31.87
2018-06-05T10:07:25.718Z,32.95
2018-06-05T10:09:53.795Z,32.47
2018-06-05T10:12:21.871Z,33.37
2018-06-05T10:14:50.000Z,32.12
2018-06-05T10:17:18.104Z,32.07
2018-06-05T10:19:46.188Z,30.77
2018-06-05T10:22:14.217Z,31.10
2018-06-05T10:24:42.271Z,31.28
2018-06-05T10:27:10.484Z,30.63
2018-06-05T10:29:38.524Z,30.76
2018-06-05T10:32:06.608Z,31.06
2018-06-05T10:34:34.700Z,30.87
2018-06-05T10:37:02.726Z,30.70
2018-06-05T10:39:30.784Z,29.46
2018-06-05T10:41:58.893Z,29.44
2018-06-05T10:44:26.974Z,29.55
2018-06-05T10:46:55.033Z,29.05
2018-06-05T10:49:23.112Z,29.64
2018-06-05T10:51:51.183Z,29.02
2018-06-05T10:54:19.256Z,29.80
2018-06-05T10:56:47.288Z,29.29
2018-06-05T10:59:15.391Z,29.80
2018-06-05T11:01:43.426Z,29.37
2018-06-05T11:04:11.580Z,28.65
2018-06-05T11:06:39.617Z,29.53
2018-06-05T11:09:08.209Z,28.51
2018-06-05T11:11:36.255Z,28.76
2018-06-05T11:14:04.328Z,27.74
2018-06-05T11:16:32.372Z,28.91
2018-06-05T11:19:00.564Z,27.95
2018-06-05T11:21:28.636Z,28.71
2018-06-05T11:23:56.681Z,28.12
2018-06-05T11:26:24.745Z,28.35
2018-06-05T11:28:52.848Z,28.03
2018-06-05T11:31:20.911Z,27.25
2018-06-05T11:33:48.999Z,27.54
2018-06-05T11:36:17.062Z,27.90
2018-06-05T11:38:45.120Z,27.31
2018-06-05T11:41:13.174Z,28.05
2018-06-05T11:43:41.231Z,27.29
2018-06-05T11:46:09.402Z,27.51
2018-06-05T11:48:37.503Z,27.78
2018-06-05T11:51:05.646Z,26.44
2018-06-05T11:53:33.752Z,26.90
2018-06-05T11:56:01.826Z,26.52
2018-06-05T11:58:29.909Z,25.58
2018-06-05T12:00:57.974Z,26.20
2018-06-05T12:03:26.034Z,26.00
2018-06-05T12:05:54.092Z,27.03
2018-06-05T12:08:22.157Z,25.57
2018-06-05T12:10:50.289Z,26.34
2018-06-05T12:13:18.356Z,26.04
2018-06-05T12:15:46.459Z,25.47
2018-06-05T12:18:14.568Z,26.48
2018-06-05T12:20:42.643Z,26.47
2018-06-05T12:23:10.720Z,25.70
2018-06-05T12:25:38.799Z,25.64
2018-06-05T12:28:06.864Z,26.05
2018-06-05T12:30:34.944Z,26.63
2018-06-05T12:33:03.003Z,25.69
2018-06-05T12:35:31.076Z,25.54
2018-06-05T12:37:59.120Z,26.19
2018-06-05T12:40:27.238Z,25.02
2018-06-05T12:42:55.242Z,25.39
2018-06-05T12:45:23.308Z,24.58
2018-06-05T12:47:51.351Z,25.05
2018-06-05T12:50:19.449Z,24.31
2018-06-05T12:52:47.525Z,24.79
2018-06-05T12:55:15.590Z,23.68
2018-06-05T12:57:43.636Z,24.85
2018-06-05T13:00:11.704Z,23.79
2018-06-05T13:02:39.764Z,24.16
2018-06-05T13:05:07.814Z,24.95
2018-06-05T13:07:35.876Z,24.26
2018-06-05T13:10:03.977Z,24.41
2018-06-05T13:12:32.044Z,24.07
2018-06-05T13:15:00.133Z,24.22
2018-06-05T13:17:28.259Z,24.22
2018-06-05T13:19:56.267Z,24.05
2018-06-05T13:22:24.347Z,24.71
2018-06-05T13:24:52.397Z,24.47
2018-06-05T13:27:20.456Z,24.50
2018-06-05T13:29:48.517Z,23.54
2018-06-05T13:32:16.588Z,24.55
2018-06-05T13:34:44.644Z,24.17
2018-06-05T13:37:12.715Z,23.73
2018-06-05T13:39:40.764Z,23.91
2018-06-05T13:42:08.857Z,23.47
2018-06-05T13:44:36.917Z,23.68
2018-06-05T13:47:05.092Z,23.31
2018-06-05T13:49:33.156Z,23.35
2018-06-05T13:52:01.221Z,22.99
2018-06-05T13:54:29.293Z,22.99
2018-06-05T13:56:57.357Z,23.03
2018-06-05T13:59:25.414Z,23.69
2018-06-05T14:01:53.492Z,23.59
2018-06-05T14:04:21.524Z,23.71
2018-06-05T14:06:49.631Z,23.80
2018-06-05T14:09:17.740Z,22.64
2018-06-05T14:11:45.734Z,22.82
2018-06-05T14:14:13.843Z,23.81
2018-06-05T14:16:41.892Z,22.38
2018-06-05T14:19:09.979Z,23.87
2018-06-05T14:21:38.056Z,24.36
2018-06-05T14:24:06.100Z,23.91
2018-06-05T14:26:34.161Z,23.62
2018-06-05T14:29:02.255Z,23.44
2018-06-05T14:31:30.388Z,24.63
2018-06-05T14:33:58.501Z,24.75
2018-06-05T14:36:26.548Z,24.47
2018-06-05T14:38:54.588Z,24.30
2018-06-05T14:41:22.645Z,24.51
2018-06-05T14:43:50.682Z,24.25
2018-06-05T14:46:18.725Z,24.29
2018-06-05T14:48:46.924Z,23.59
2018-06-05T14:51:14.956Z,24.92
2018-06-05T14:53:43.088Z,24.98
2018-06-05T14:56:11.132Z,24.81
2018-06-05T14:58:39.183Z,24.32
2018-06-05T15:01:07.277Z,24.72
2018-06-05T15:03:35.424Z,25.15
2018-06-05T15:06:03.516Z,25.08
2018-06-05T15:08:31.696Z,26.17
2018-06-05T15:10:59.752Z,26.15
2018-06-05T15:13:27.808Z,26.83
2018-06-05T15:15:55.865Z,27.32
2018-06-05T15:18:23.933Z,27.29
2018-06-05T15:20:52.039Z,27.77
2018-06-05T15:23:20.112Z,27.68
2018-06-05T15:25:48.180Z,27.46
2018-06-05T15:28:16.246Z,28.07
2018-06-05T15:30:44.285Z,27.54
2018-06-05T15:33:12.391Z,28.44
2018-06-05T15:35:40.460Z,27.95
2018-06-05T15:38:08.534Z,27.68
2018-06-05T15:40:36.588Z,27.50
2018-06-05T15:43:04.696Z,27.24
2018-06-05T15:45:32.745Z,28.20
2018-06-05T15:48:00.804Z,28.17
2018-06-05T15:50:28.855Z,28.93
2018-06-05T15:52:56.912Z,29.07
2018-06-05T15:55:24.960Z,29.60
2018-06-05T15:57:53.013Z,29.77
2018-06-05T16:00:21.083Z,29.45
2018-06-05T16:02:49.140Z,30.20
2018-06-05T16:05:17.897Z,30.36
2018-06-05T16:07:46.150Z,30.77
2018-06-05T16:10:14.207Z,30.99
2018-06-05T16:12:42.280Z,31.01
2018-06-05T16:15:10.393Z,31.26
2018-06-05T16:17:38.460Z,31.08
2018-06-05T16:20:06.534Z,30.98
2018-06-05T16:22:34.607Z,30.89
2018-06-05T16:25:03.356Z,31.01
2018-06-05T16:27:31.408Z,30.90
2018-06-05T16:29:59.572Z,30.68
2018-06-05T16:32:28.788Z,31.89
2018-06-05T16:34:57.064Z,31.97
2018-06-05T16:37:25.304Z,31.96
2018-06-05T16:39:53.372Z,31.31
2018-06-05T16:42:21.448Z,31.76
2018-06-05T16:44:49.557Z,32.12
2018-06-05T16:47:17.631Z,31.85
2018-06-05T16:49:45.724Z,32.49
2018-06-05T16:52:13.807Z,32.52
2018-06-05T16:54:41.858Z,31.56
2018-06-05T16:57:09.905Z,31.89
2018-06-05T16:59:37.976Z,32.58
2018-06-05T17:02:06.047Z,32.92
2018-06-05T17:04:34.236Z,32.16
2018-06-05T17:07:02.200Z,32.17
2018-06-05T17:09:30.256Z,33.12
2018-06-05T17:11:58.336Z,32.94
2018-06-05T17:14:26.431Z,32.59
2018-06-05T17:16:54.487Z,32.94
2018-06-05T17:19:22.582Z,33.71
2018-06-05T17:21:50.615Z,32.95
2018-06-05T17:24:18.819Z,33.35
2018-06-05T17:26:46.875Z,33.69
2018-06-05T17:29:14.921Z,34.85
2018-06-05T17:31:43.032Z,34.31
2018-06-05T17:34:11.118Z,35.57
2018-06-05T17:36:39.122Z,34.93
2018-06-05T17:39:07.859Z,34.96
2018-06-05T17:41:35.905Z,35.84
2018-06-05T17:44:03.968Z,36.21
2018-06-05T17:46:32.051Z,35.74
2018-06-05T17:49:00.244Z,36.42
2018-06-05T17:51:28.450Z,36.39
2018-06-05T17:53:56.656Z,36.16
2018-06-05T17:56:24.764Z,36.66
2018-06-05T17:58:52.820Z,36.95
2018-06-05T18:01:20.849Z,37.42
2018-06-05T18:03:48.940Z,37.08
2018-06-05T18:06:16.977Z,36.50
2018-06-05T18:08:45.033Z,36.48
2018-06-05T18:11:13.072Z,36.34
2018-06-05T18:13:41.125Z,36.70
2018-06-05T18:16:09.168Z,36.44
2018-06-05T18:18:37.239Z,37.42
2018-06-05T18:21:05.347Z,37.10
2018-06-05T18:23:33.395Z,37.74
2018-06-05T18:26:01.453Z,37.90
2018-06-05T18:28:29.495Z,38.92
2018-06-05T18:30:57.600Z,39.21
2018-06-05T18:33:26.489Z,38.81
2018-06-05T18:35:54.575Z,39.49
2018-06-05T18:38:22.616Z,39.06
2018-06-05T18:40:50.914Z,39.96
2018-06-05T18:43:19.056Z,40.23
2018-06-05T18:45:47.184Z,39.89
2018-06-05T18:48:15.233Z,39.96
2018-06-05T18:50:43.299Z,40.05
2018-06-05T18:53:11.329Z,40.95
2018-06-05T18:55:39.392Z,40.08
2018-06-05T18:58:07.436Z,40.21
2018-06-05T19:00:35.482Z,40.78
2018-06-05T19:03:03.524Z,40.59
2018-06-05T19:05:31.660Z,40.33
2018-06-05T19:07:59.722Z,40.41
2018-06-05T19:10:27.768Z,41.04
2018-06-05T19:12:55.822Z,40.60
2018-06-05T19:15:23.937Z,41.04
2018-06-05T19:17:51.972Z,42.32
2018-06-05T19:20:20.038Z,42.45
2018-06-05T19:22:48.085Z,42.36
2018-06-05T19:25:16.156Z,43.67
2018-06-05T19:27:44.248Z,44.63
2018-06-05T19:30:12.329Z,45.46
2018-06-05T19:32:40.392Z,45.30
2018-06-05T19:35:08.453Z,45.68
2018-06-05T19:37:36.503Z,46.75
2018-06-05T19:40:04.585Z,46.30
2018-06-05T19:42:32.632Z,46.67
2018-06-05T19:45:00.696Z,47.09
2018-06-05T19:47:28.779Z,47.59
2018-06-05T19:49:56.852Z,48.33
2018-06-05T19:52:24.916Z,48.50
2018-06-05T19:54:52.992Z,48.65
2018-06-05T19:57:21.065Z,48.34
2018-06-05T19:59:49.139Z,49.21
2018-06-05T20:02:17.233Z,49.03
2018-06-05T20:04:45.281Z,49.59
2018-06-05T20:07:13.352Z,49.89
2018-06-05T20:09:42.233Z,49.73
2018-06-05T20:12:10.324Z,50.53
2018-06-05T20:14:38.380Z,50.57
2018-06-05T20:17:06.459Z,50.45
2018-06-05T20:19:34.524Z,50.30
2018-06-05T20:22:02.628Z,50.37
2018-06-05T20:24:30.740Z,50.59
2018-06-05T20:26:58.849Z,50.75
2018-06-05T20:29:26.943Z,50.86
2018-06-05T20:31:55.081Z,50.67
2018-06-05T20:34:23.163Z,50.87
2018-06-05T20:36:51.293Z,50.62
2018-06-05T20:39:19.368Z,50.07
2018-06-05T20:41:47.478Z,50.58
2018-06-05T20:44:15.575Z,50.67
2018-06-05T20:46:43.681Z,50.33
2018-06-05T20:49:11.816Z,50.23
2018-06-05T20:51:39.974Z,50.12
2018-06-05T20:54:08.073Z,49.52
2018-06-05T20:56:36.171Z,50.19
2018-06-05T20:59:04.248Z,49.44
2018-06-05T21:01:32.363Z,49.46
2018-06-05T21:04:00.467Z,48.32
2018-06-05T21:06:28.559Z,48.36
2018-06-05T21:08:56.669Z,48.26
2018-06-05T21:11:24.764Z,48.30
2018-06-05T21:13:52.854Z,47.91
2018-06-05T21:16:20.966Z,47.62
2018-06-05T21:18:49.100Z,47.09
2018-06-05T21:21:17.208Z,46.98
2018-06-05T21:23:45.313Z,46.42
2018-06-05T21:26:13.429Z,46.55
2018-06-05T21:28:41.540Z,46.17
2018-06-05T21:31:09.680Z,45.58
2018-06-05T21:33:37.818Z,45.81
2018-06-05T21:36:05.916Z,45.24
2018-06-05T21:38:34.079Z,44.92
2018-06-05T21:41:02.169Z,45.40
2018-06-05T21:43:30.267Z,45.13
2018-06-05T21:45:58.374Z,44.87
2018-06-05T21:48:26.467Z,44.69
2018-06-05T21:50:54.599Z,44.73
2018-06-05T21:53:22.696Z,44.07
2018-06-05T21:55:50.784Z,44.68
2018-06-05T21:58:18.872Z,44.23
2018-06-05T22:00:47.006Z,43.69
2018-06-05T22:03:15.112Z,44.53
2018-06-05T22:05:43.196Z,44.09
2018-06-05T22:08:11.329Z,43.48
2018-06-05T22:10:39.408Z,43.49
2018-06-05T22:13:07.513Z,43.85
2018-06-05T22:15:35.612Z,43.66
2018-06-05T22:18:03.768Z,43.79
2018-06-05T22:20:31.844Z,43.59
2018-06-05T22:22:59.969Z,44.42
2018-06-05T22:25:28.053Z,44.03
2018-06-05T22:27:56.144Z,44.29
2018-06-05T22:30:24.280Z,44.44
2018-06-05T22:32:52.360Z,44.62
2018-06-05T22:35:20.440Z,44.44
2018-06-05T22:37:48.526Z,45.18
2018-06-05T22:40:16.609Z,45.21
2018-06-05T22:42:44.685Z,45.30
2018-06-05T22:45:12.772Z,45.38
2018-06-05T22:47:40.913Z,45.71
2018-06-05T22:50:08.993Z,46.27
2018-06-05T22:52:37.077Z,46.32
2018-06-05T22:55:05.136Z,46.37
2018-06-05T22:57:33.248Z,46.41
2018-06-05T23:00:01.347Z,46.24
2018-06-05T23:02:29.426Z,47.18
2018-06-05T23:04:57.508Z,46.53
2018-06-05T23:07:25.600Z,47.37
2018-06-05T23:09:53.673Z,47.21
2018-06-05T23:12:21.757Z,47.55
2018-06-05T23:14:49.868Z,47.72
2018-06-05T23:17:17.943Z,47.43
2018-06-05T23:19:46.026Z,47.27
2018-06-05T23:22:14.126Z,48.06
2018-06-05T23:24:42.201Z,47.90
2018-06-05T23:27:10.304Z,47.67
2018-06-05T23:29:38.433Z,48.22
2018-06-05T23:32:06.892Z,48.24
2018-06-05T23:34:34.972Z,48.38
2018-06-05T23:37:03.057Z,47.95
2018-06-05T23:39:31.128Z,48.55
2018-06-05T23:41:59.214Z,48.38
2018-06-05T23:44:27.334Z,48.58
2018-06-05T23:46:55.432Z,48.35
2018-06-05T23:49:23.512Z,48.77
2018-06-05T23:51:55.773Z,49.05
2018-06-05T23:54:23.848Z,48.11
2018-06-05T23:56:51.964Z,48.91
2018-06-05T23:59:20.060Z,49.34
